logo
Rechercher aéroport 
image banner adimage banner adimage banner ad
image banner ad

FARZ - Reitz

Situé à Maasstroom, South Africa

ICAO - FARZ, IATA -

Données fournies par Airmate  

Information générale

Coordonnées: S27°47'3" E28°25'47"
Élévation : 5331 feet MSL.
 
Voir autres Aéroports à Limpopo

Données opérationnelles

Special qualification required
Heure actuelle UTC:
Heure actuelle locale:
Météo à : - ( 0 km )
METAR: CYRV 220908Z AUTO 32002KT 9SM -RA BKN028 OVC050 09/09 A2974 RMK SLP081
Voir NOTAMs / SUP AIP / TFR affectant cet aéroport [VIEW]
Fréquences de communication: [VIEW]

Pistes:

Identifiant RWYQFULongueur (ft)Largeur (ft)SurfaceLDA (ft)
1169°360998SAND
29249°360998SAND

Coordonnées de l'aéroport

Adresse: Maasstroom South Africa

Vue satellite de FARZ